CheckWX is a tool to help pilots better visualize weather data.  It is not intended as a substitute for an official pre-flight weather briefing.

08:15:24 UTC

KLAX METAR
Los Angeles International Airport
Los Angeles, California, USA
Current

22 mins ago

KLAX 220753Z VRB03KT 10SM FEW018 FEW050 SCT150 09/M01 A2977 RMK AO2 SLP080 T00891011 401390072 $
Observed
Feb-22 @ 07:53 UTC
Wind
  • Variable at 3 KTS
Visibility
10 SM
Flight Rules
VFR
Cloud Levels
  • Few at 1,800' AGL
  • Few at 5,000' AGL
  • Scattered at 15,000' AGL
Temperature
C / 48°F
Dewpoint
-1°C / 30°F
Humidity
50%
Altimeter
29.77" Hg
Pressure
1008 hPa
Previous

1 hour ago

KLAX 220653Z VRB03KT 10SM FEW060 FEW110 09/01 A2976 RMK AO2 SLP076 T00890011 $
Observed
Feb-22 @ 06:53 UTC
Wind
  • Variable at 3 KTS
Visibility
10 SM
Flight Rules
VFR
Cloud Levels
  • Few at 6,000' AGL
  • Few at 11,000' AGL
Temperature
C / 48°F
Dewpoint
C / 34°F
Humidity
58%
Altimeter
29.76" Hg
Pressure
1007.6 hPa
Previous

2 hours ago

KLAX 220553Z VRB03KT 10SM FEW110 09/M01 A2974 RMK AO2 SLP071 T00941011 10111 20083 51018 $
Observed
Feb-22 @ 05:53 UTC
Wind
  • Variable at 3 KTS
Visibility
10 SM
Flight Rules
VFR
Cloud Levels
  • Few at 11,000' AGL
Temperature
C / 48°F
Dewpoint
-1°C / 30°F
Humidity
50%
Altimeter
29.74" Hg
Pressure
1007.1 hPa